createdAt,value
2017-09-08T00:00:07.180Z,10.00
2017-09-08T00:02:35.394Z,7.97
2017-09-08T00:05:04.170Z,6.50
2017-09-08T00:07:32.328Z,7.37
2017-09-08T00:10:00.521Z,8.67
2017-09-08T00:12:28.798Z,6.47
2017-09-08T00:14:58.242Z,8.30
2017-09-08T00:17:27.222Z,6.60
2017-09-08T00:19:55.436Z,7.63
2017-09-08T00:22:23.665Z,7.90
2017-09-08T00:24:51.882Z,7.00
2017-09-08T00:27:20.156Z,6.87
2017-09-08T00:29:48.285Z,7.60
2017-09-08T00:32:16.474Z,9.40
2017-09-08T00:34:44.602Z,7.13
2017-09-08T00:37:13.532Z,8.97
2017-09-08T00:39:41.864Z,9.83
2017-09-08T00:42:10.654Z,9.07
2017-09-08T00:44:38.928Z,8.50
2017-09-08T00:47:07.082Z,9.67
2017-09-08T00:49:36.052Z,8.60
2017-09-08T00:52:04.217Z,9.00
2017-09-08T00:54:32.425Z,10.27
2017-09-08T00:57:01.446Z,9.50
2017-09-08T00:59:29.767Z,11.40
2017-09-08T01:01:57.933Z,11.53
2017-09-08T01:04:27.054Z,13.03
2017-09-08T01:06:55.991Z,11.77
2017-09-08T01:09:24.260Z,16.10
2017-09-08T01:11:52.502Z,14.70
2017-09-08T01:14:20.651Z,11.50
2017-09-08T01:16:48.840Z,10.50
2017-09-08T01:19:17.112Z,12.63
2017-09-08T01:21:46.022Z,10.63
2017-09-08T01:24:14.283Z,10.97
2017-09-08T01:26:42.458Z,14.30
2017-09-08T01:29:11.267Z,11.80
2017-09-08T01:31:39.467Z,12.83
2017-09-08T01:34:07.600Z,11.70
2017-09-08T01:36:36.501Z,13.20
2017-09-08T01:39:04.678Z,11.73
2017-09-08T01:41:33.478Z,12.83
2017-09-08T01:44:01.676Z,11.20
2017-09-08T01:46:29.835Z,13.30
2017-09-08T01:48:57.971Z,14.23
2017-09-08T01:51:26.584Z,11.17
2017-09-08T01:53:54.940Z,10.93
2017-09-08T01:56:23.153Z,13.03
2017-09-08T01:58:51.344Z,11.70
2017-09-08T02:01:20.272Z,10.27
2017-09-08T02:03:48.501Z,15.73
2017-09-08T02:06:17.524Z,14.80
2017-09-08T02:08:45.818Z,16.00
2017-09-08T02:11:14.092Z,15.10
2017-09-08T02:13:42.477Z,16.27
2017-09-08T02:16:10.634Z,16.07
2017-09-08T02:18:39.787Z,15.20
2017-09-08T02:21:08.723Z,14.17
2017-09-08T02:23:36.982Z,15.30
2017-09-08T02:26:05.284Z,13.00
2017-09-08T02:28:33.459Z,15.30
2017-09-08T02:31:01.842Z,10.87
2017-09-08T02:33:30.212Z,11.37
2017-09-08T02:35:59.390Z,16.40
2017-09-08T02:38:27.764Z,14.23
2017-09-08T02:40:56.174Z,10.87
2017-09-08T02:43:25.097Z,11.57
2017-09-08T02:45:53.358Z,12.70
2017-09-08T02:48:21.616Z,14.23
2017-09-08T02:50:50.638Z,10.50
2017-09-08T02:53:18.885Z,12.37
2017-09-08T02:55:47.261Z,11.10
2017-09-08T02:58:16.172Z,10.60
2017-09-08T03:00:44.351Z,12.80
2017-09-08T03:03:12.525Z,11.50
2017-09-08T03:05:40.723Z,11.07
2017-09-08T03:08:08.851Z,11.47
2017-09-08T03:10:37.803Z,11.93
2017-09-08T03:13:05.957Z,12.80
2017-09-08T03:15:34.087Z,12.30
2017-09-08T03:18:02.224Z,10.60
2017-09-08T03:20:30.617Z,15.03
2017-09-08T03:22:58.831Z,11.97
2017-09-08T03:25:27.040Z,11.47
2017-09-08T03:27:55.264Z,15.63
2017-09-08T03:30:24.228Z,13.20
2017-09-08T03:32:53.088Z,10.47
2017-09-08T03:35:21.218Z,16.13
2017-09-08T03:37:50.149Z,15.60
2017-09-08T03:40:18.279Z,10.70
2017-09-08T03:42:46.387Z,19.33
2017-09-08T03:45:15.289Z,13.70
2017-09-08T03:47:43.458Z,16.70
2017-09-08T03:50:12.344Z,18.33
2017-09-08T03:52:41.292Z,12.80
2017-09-08T03:55:10.182Z,20.97
2017-09-08T03:57:38.327Z,16.03
2017-09-08T04:00:06.463Z,13.77
2017-09-08T04:02:34.700Z,19.67
2017-09-08T04:05:02.847Z,12.50
2017-09-08T04:07:31.663Z,14.43
2017-09-08T04:10:00.576Z,15.63
2017-09-08T04:12:29.570Z,16.10
2017-09-08T04:14:57.848Z,12.30
2017-09-08T04:17:26.797Z,17.23
2017-09-08T04:19:54.925Z,15.27
2017-09-08T04:22:23.877Z,17.50
2017-09-08T04:24:53.608Z,14.17
2017-09-08T04:27:22.586Z,17.33
2017-09-08T04:29:50.729Z,17.80
2017-09-08T04:32:19.646Z,18.47
2017-09-08T04:34:47.804Z,17.20
2017-09-08T04:37:15.916Z,16.77
2017-09-08T04:39:44.834Z,21.17
2017-09-08T04:42:12.975Z,24.03
2017-09-08T04:44:41.155Z,17.23
2017-09-08T04:47:09.515Z,19.67
2017-09-08T04:49:37.675Z,22.80
2017-09-08T04:52:06.591Z,23.20
2017-09-08T04:54:35.549Z,25.03
2017-09-08T04:57:03.785Z,20.13
2017-09-08T04:59:32.033Z,20.60
2017-09-08T05:02:00.194Z,23.13
2017-09-08T05:04:28.436Z,21.67
2017-09-08T05:06:56.606Z,25.90
2017-09-08T05:09:25.619Z,21.67
2017-09-08T05:11:54.475Z,24.07
2017-09-08T05:14:22.691Z,25.50
2017-09-08T05:16:50.838Z,22.03
2017-09-08T05:19:18.996Z,26.70
2017-09-08T05:21:47.232Z,26.80
2017-09-08T05:24:16.232Z,22.60
2017-09-08T05:26:45.180Z,25.43
2017-09-08T05:29:14.086Z,22.37
2017-09-08T05:31:42.238Z,23.47
2017-09-08T05:34:10.537Z,25.13
2017-09-08T05:36:39.367Z,26.03
2017-09-08T05:39:07.633Z,32.53
2017-09-08T05:41:35.920Z,27.57
2017-09-08T05:44:04.114Z,26.30
2017-09-08T05:46:32.277Z,28.60
2017-09-08T05:49:01.203Z,26.50
2017-09-08T05:51:29.352Z,25.40
2017-09-08T05:53:58.289Z,22.33
2017-09-08T05:56:27.214Z,29.10
2017-09-08T05:58:55.385Z,29.53
2017-09-08T06:01:23.534Z,20.87
2017-09-08T06:03:51.697Z,26.80
2017-09-08T06:06:19.882Z,25.40
2017-09-08T06:08:48.122Z,27.80
2017-09-08T06:11:16.465Z,30.20
2017-09-08T06:13:44.619Z,26.93
2017-09-08T06:16:12.823Z,26.80
2017-09-08T06:18:40.969Z,28.27
2017-09-08T06:21:09.527Z,25.80
2017-09-08T06:23:37.800Z,29.00
2017-09-08T06:26:05.948Z,24.00
2017-09-08T06:28:35.721Z,29.23
2017-09-08T06:31:03.850Z,27.03
2017-09-08T06:33:31.984Z,28.27
2017-09-08T06:36:01.407Z,28.77
2017-09-08T06:38:29.713Z,33.30
2017-09-08T06:40:59.047Z,19.93
2017-09-08T06:43:27.218Z,28.30
2017-09-08T06:45:55.370Z,29.03
2017-09-08T06:48:24.747Z,21.30
2017-09-08T06:50:52.900Z,23.80
2017-09-08T06:53:23.874Z,27.80
2017-09-08T06:55:53.271Z,24.13
2017-09-08T06:58:21.804Z,22.97
2017-09-08T07:00:50.973Z,27.33
2017-09-08T07:03:21.450Z,20.50
2017-09-08T07:05:49.990Z,29.97
2017-09-08T07:08:20.398Z,23.03
2017-09-08T07:10:48.635Z,22.80
2017-09-08T07:13:16.821Z,21.80
2017-09-08T07:15:44.978Z,22.00
2017-09-08T07:18:13.356Z,21.20
2017-09-08T07:20:41.893Z,22.17
2017-09-08T07:23:11.186Z,26.50
2017-09-08T07:25:39.330Z,22.53
2017-09-08T07:28:07.519Z,20.53
2017-09-08T07:30:36.021Z,18.17
2017-09-08T07:33:04.199Z,18.60
2017-09-08T07:35:32.336Z,20.30
2017-09-08T07:38:00.515Z,23.80
2017-09-08T07:40:29.429Z,28.97
2017-09-08T07:42:57.866Z,20.20
2017-09-08T07:45:26.035Z,26.40
2017-09-08T07:47:54.967Z,24.13
2017-09-08T07:50:25.353Z,25.30
2017-09-08T07:52:53.662Z,22.37
2017-09-08T07:55:21.975Z,27.67
2017-09-08T07:57:50.934Z,24.77
2017-09-08T08:00:19.109Z,20.63
2017-09-08T08:02:47.262Z,20.83
2017-09-08T08:05:15.943Z,21.90
2017-09-08T08:07:44.316Z,22.37
2017-09-08T08:10:12.485Z,33.33
2017-09-08T08:12:41.248Z,23.90
2017-09-08T08:15:14.789Z,29.07
2017-09-08T08:17:44.851Z,19.70
2017-09-08T08:20:13.269Z,27.23
2017-09-08T08:22:42.201Z,24.07
2017-09-08T08:25:10.459Z,28.33
2017-09-08T08:27:38.583Z,23.83
2017-09-08T08:30:06.828Z,21.57
2017-09-08T08:32:35.034Z,21.17
2017-09-08T08:35:03.985Z,23.20
2017-09-08T08:37:32.674Z,22.80
2017-09-08T08:40:00.880Z,22.67
2017-09-08T08:42:29.038Z,22.00
2017-09-08T08:44:57.320Z,18.07
2017-09-08T08:47:25.954Z,16.73
2017-09-08T08:49:54.305Z,24.33
2017-09-08T08:52:22.415Z,16.97
2017-09-08T08:54:51.303Z,22.53
2017-09-08T08:57:19.447Z,18.70
2017-09-08T08:59:47.548Z,18.60
2017-09-08T09:02:15.916Z,20.17
2017-09-08T09:04:43.993Z,17.47
2017-09-08T09:07:12.291Z,15.80
2017-09-08T09:09:40.518Z,16.60
2017-09-08T09:12:08.776Z,20.20
2017-09-08T09:14:37.813Z,18.30
2017-09-08T09:17:05.936Z,20.50
2017-09-08T09:19:34.920Z,22.33
2017-09-08T09:22:03.256Z,19.90
2017-09-08T09:24:35.047Z,20.93
2017-09-08T09:27:03.334Z,17.83
2017-09-08T09:29:31.490Z,17.90
2017-09-08T09:31:59.820Z,22.97
2017-09-08T09:34:29.152Z,25.43
2017-09-08T09:36:57.753Z,17.47
2017-09-08T09:39:27.646Z,21.57
2017-09-08T09:41:55.834Z,16.90
2017-09-08T09:44:24.186Z,16.83
2017-09-08T09:46:53.282Z,18.03
2017-09-08T09:49:22.833Z,21.30
2017-09-08T09:51:51.102Z,16.20
2017-09-08T09:54:19.231Z,18.13
2017-09-08T09:56:47.427Z,27.13
2017-09-08T09:59:16.285Z,15.70
2017-09-08T10:01:44.646Z,20.17
2017-09-08T10:04:12.820Z,14.90
2017-09-08T10:06:45.746Z,21.00
2017-09-08T10:09:18.721Z,16.90
2017-09-08T10:11:47.007Z,18.80
2017-09-08T10:14:15.827Z,18.90
2017-09-08T10:16:44.187Z,21.20
2017-09-08T10:19:12.355Z,19.63
2017-09-08T10:21:40.886Z,17.40
2017-09-08T10:24:09.781Z,17.00
2017-09-08T10:26:37.954Z,17.73
2017-09-08T10:29:06.519Z,15.90
2017-09-08T10:31:34.702Z,19.10
2017-09-08T10:34:03.651Z,12.63
2017-09-08T10:36:32.926Z,14.43
2017-09-08T10:39:01.199Z,15.53
2017-09-08T10:41:30.225Z,15.97
2017-09-08T10:43:58.357Z,17.53
2017-09-08T10:46:26.537Z,18.87
2017-09-08T10:48:54.812Z,16.37
2017-09-08T10:51:23.726Z,16.60
2017-09-08T10:53:52.642Z,13.60
2017-09-08T10:56:21.565Z,16.47
2017-09-08T10:58:51.598Z,11.93
2017-09-08T11:01:20.833Z,17.13
2017-09-08T11:03:49.892Z,15.13
2017-09-08T11:06:18.270Z,15.80
2017-09-08T11:08:46.666Z,16.93
2017-09-08T11:11:15.477Z,21.83
2017-09-08T11:13:43.713Z,20.40
2017-09-08T11:16:12.397Z,16.67
2017-09-08T11:18:40.672Z,16.37
2017-09-08T11:21:09.633Z,17.67
2017-09-08T11:23:37.839Z,12.63
2017-09-08T11:26:06.076Z,15.57
2017-09-08T11:28:34.375Z,15.13
2017-09-08T11:31:02.672Z,20.27
2017-09-08T11:33:37.195Z,16.03
2017-09-08T11:36:12.775Z,17.80
2017-09-08T11:38:41.161Z,14.20
2017-09-08T11:41:09.461Z,21.23
2017-09-08T11:43:37.645Z,17.63
2017-09-08T11:46:05.918Z,16.50
2017-09-08T11:48:34.148Z,15.90
2017-09-08T11:51:02.755Z,13.43
2017-09-08T11:53:31.072Z,15.00
2017-09-08T11:56:00.533Z,20.07
2017-09-08T11:58:28.688Z,17.13
2017-09-08T12:00:56.862Z,21.13
2017-09-08T12:03:25.098Z,19.67
2017-09-08T12:05:53.251Z,17.50
2017-09-08T12:08:21.476Z,16.50
2017-09-08T12:10:49.623Z,13.30
2017-09-08T12:13:18.533Z,14.83
2017-09-08T12:15:46.868Z,17.57
2017-09-08T12:18:15.071Z,18.20
2017-09-08T12:20:43.967Z,14.63
2017-09-08T12:23:12.133Z,13.30
2017-09-08T12:25:40.268Z,15.53
2017-09-08T12:28:08.396Z,18.23
2017-09-08T12:30:36.551Z,16.93
2017-09-08T12:33:04.642Z,14.20
2017-09-08T12:35:32.787Z,17.87
2017-09-08T12:38:01.502Z,20.23
2017-09-08T12:40:29.602Z,17.87
2017-09-08T12:42:58.524Z,12.13
2017-09-08T12:45:27.200Z,13.00
2017-09-08T12:47:56.163Z,16.97
2017-09-08T12:50:25.055Z,19.20
2017-09-08T12:52:53.205Z,18.63
2017-09-08T12:55:21.406Z,20.27
2017-09-08T12:57:49.603Z,14.93
2017-09-08T13:00:17.732Z,15.67
2017-09-08T13:02:45.875Z,20.10
2017-09-08T13:05:14.058Z,19.00
2017-09-08T13:07:42.238Z,17.37
2017-09-08T13:10:10.859Z,17.07
2017-09-08T13:12:39.030Z,15.13
2017-09-08T13:15:07.221Z,16.87
2017-09-08T13:17:35.391Z,12.73
2017-09-08T13:20:03.599Z,19.33
2017-09-08T13:22:31.776Z,20.73
2017-09-08T13:25:00.149Z,22.73
2017-09-08T13:27:29.058Z,22.50
2017-09-08T13:29:57.781Z,21.47
2017-09-08T13:32:26.000Z,15.53
2017-09-08T13:34:54.916Z,15.93
2017-09-08T13:37:23.119Z,17.20
2017-09-08T13:39:51.340Z,19.87
2017-09-08T13:42:19.909Z,23.63
2017-09-08T13:44:49.713Z,16.70
2017-09-08T13:47:17.976Z,19.53
2017-09-08T13:49:46.574Z,21.67
2017-09-08T13:52:14.747Z,18.40
2017-09-08T13:54:47.870Z,17.67
2017-09-08T13:57:16.157Z,24.33
2017-09-08T13:59:45.132Z,17.87
2017-09-08T14:02:14.130Z,16.00
2017-09-08T14:04:42.643Z,17.13
2017-09-08T14:07:10.958Z,19.30
2017-09-08T14:09:39.150Z,18.40
2017-09-08T14:12:07.405Z,19.60
2017-09-08T14:14:36.410Z,22.00
2017-09-08T14:17:05.446Z,21.87
2017-09-08T14:19:33.625Z,17.50
2017-09-08T14:22:01.870Z,20.30
2017-09-08T14:24:30.043Z,21.70
2017-09-08T14:26:59.000Z,18.30
2017-09-08T14:29:27.130Z,18.07
2017-09-08T14:31:55.251Z,17.37
2017-09-08T14:34:23.518Z,14.10
2017-09-08T14:36:51.663Z,16.73
2017-09-08T14:39:20.028Z,21.00
2017-09-08T14:41:48.966Z,15.33
2017-09-08T14:44:17.344Z,18.43
2017-09-08T14:46:45.659Z,13.47
2017-09-08T14:49:15.344Z,16.70
2017-09-08T14:51:50.909Z,15.37
2017-09-08T14:54:19.958Z,15.93
2017-09-08T14:56:49.352Z,16.33
2017-09-08T14:59:19.845Z,15.20
2017-09-08T15:01:48.741Z,10.43
2017-09-08T15:04:17.614Z,15.07
2017-09-08T15:06:45.870Z,17.30
2017-09-08T15:09:14.548Z,12.80
2017-09-08T15:11:42.751Z,12.63
2017-09-08T15:14:11.484Z,11.07
2017-09-08T15:16:41.149Z,14.47
2017-09-08T15:19:09.934Z,17.43
2017-09-08T15:21:39.049Z,11.77
2017-09-08T15:24:07.254Z,13.60
2017-09-08T15:26:35.428Z,11.07
2017-09-08T15:29:03.617Z,10.57
2017-09-08T15:31:31.816Z,13.30
2017-09-08T15:34:00.939Z,13.70
2017-09-08T15:36:29.225Z,11.07
2017-09-08T15:38:57.488Z,14.27
2017-09-08T15:41:25.736Z,16.90
2017-09-08T15:43:54.163Z,12.53
2017-09-08T15:46:23.424Z,10.33
2017-09-08T15:48:52.572Z,13.10
2017-09-08T15:51:22.051Z,13.20
2017-09-08T15:53:50.209Z,13.70
2017-09-08T15:56:18.488Z,14.57
2017-09-08T15:58:46.680Z,11.43
2017-09-08T16:01:15.685Z,10.50
2017-09-08T16:03:43.964Z,14.63
2017-09-08T16:06:12.145Z,18.37
2017-09-08T16:08:40.884Z,11.17
2017-09-08T16:11:08.975Z,26.97
2017-09-08T16:13:37.224Z,14.70
2017-09-08T16:16:05.397Z,12.37
2017-09-08T16:18:33.588Z,11.77
2017-09-08T16:21:02.568Z,11.90
2017-09-08T16:23:30.707Z,11.60
2017-09-08T16:25:59.691Z,10.90
2017-09-08T16:28:28.582Z,9.10
2017-09-08T16:30:56.729Z,8.40
2017-09-08T16:33:24.819Z,11.80
2017-09-08T16:35:52.953Z,10.37
2017-09-08T16:38:21.072Z,10.07
2017-09-08T16:40:49.245Z,9.53
2017-09-08T16:43:17.454Z,9.47
2017-09-08T16:45:45.593Z,10.63
2017-09-08T16:48:13.681Z,10.93
2017-09-08T16:50:41.774Z,8.00
2017-09-08T16:53:10.628Z,9.47
2017-09-08T16:55:38.814Z,8.60
2017-09-08T16:58:06.913Z,10.37
2017-09-08T17:00:35.032Z,7.23
2017-09-08T17:03:03.152Z,8.50
2017-09-08T17:05:31.256Z,8.37
2017-09-08T17:07:59.406Z,23.63
2017-09-08T17:10:28.337Z,13.10
2017-09-08T17:12:56.475Z,7.43
2017-09-08T17:15:25.439Z,8.93
2017-09-08T17:17:53.535Z,7.30
2017-09-08T17:20:21.770Z,11.33
2017-09-08T17:22:49.926Z,10.83
2017-09-08T17:25:19.023Z,8.57
2017-09-08T17:27:47.155Z,8.90
2017-09-08T17:30:15.405Z,11.20
2017-09-08T17:32:44.275Z,10.43
2017-09-08T17:35:13.169Z,10.83
2017-09-08T17:37:42.041Z,13.00
2017-09-08T17:40:10.165Z,9.73
2017-09-08T17:42:38.284Z,12.10
2017-09-08T17:45:06.491Z,10.50
2017-09-08T17:47:34.665Z,10.20
2017-09-08T17:50:02.915Z,9.23
2017-09-08T17:52:31.045Z,10.47
2017-09-08T17:54:59.207Z,10.07
2017-09-08T17:57:28.105Z,8.70
2017-09-08T17:59:56.429Z,10.80
2017-09-08T18:02:24.696Z,11.07
2017-09-08T18:04:52.949Z,11.73
2017-09-08T18:07:21.088Z,9.30
2017-09-08T18:09:49.175Z,9.50
2017-09-08T18:12:17.393Z,9.07
2017-09-08T18:14:49.996Z,12.50
2017-09-08T18:17:20.497Z,8.57
2017-09-08T18:19:48.634Z,12.00
2017-09-08T18:22:16.787Z,10.83
2017-09-08T18:24:45.695Z,9.73
2017-09-08T18:27:13.812Z,10.23
2017-09-08T18:29:41.900Z,8.90
2017-09-08T18:32:10.011Z,9.77
2017-09-08T18:34:38.195Z,9.93
2017-09-08T18:37:06.929Z,10.20
2017-09-08T18:39:35.107Z,8.90
2017-09-08T18:42:03.282Z,11.70
2017-09-08T18:44:31.443Z,10.23
2017-09-08T18:46:59.570Z,10.27
2017-09-08T18:49:27.727Z,9.97
2017-09-08T18:51:56.373Z,10.57
2017-09-08T18:54:24.519Z,10.37
2017-09-08T18:56:52.792Z,11.60
2017-09-08T18:59:20.954Z,11.40
2017-09-08T19:01:49.145Z,11.43
2017-09-08T19:04:18.135Z,10.63
2017-09-08T19:06:46.347Z,11.10
2017-09-08T19:09:14.559Z,11.07
2017-09-08T19:11:43.456Z,15.70
2017-09-08T19:14:11.575Z,12.73
2017-09-08T19:16:39.703Z,11.80
2017-09-08T19:19:07.851Z,16.00
2017-09-08T19:21:36.794Z,12.03
2017-09-08T19:24:04.940Z,12.47
2017-09-08T19:26:33.112Z,11.23
2017-09-08T19:29:01.338Z,10.40
2017-09-08T19:31:29.655Z,10.70
2017-09-08T19:33:57.834Z,13.70
2017-09-08T19:36:26.730Z,10.80
2017-09-08T19:38:54.896Z,12.60
2017-09-08T19:41:23.799Z,12.97
2017-09-08T19:43:52.685Z,10.10
2017-09-08T19:46:20.802Z,9.70
2017-09-08T19:48:49.733Z,9.97
2017-09-08T19:51:17.872Z,10.17
2017-09-08T19:53:46.079Z,10.23
2017-09-08T19:56:14.255Z,11.07
2017-09-08T19:58:42.384Z,9.60
2017-09-08T20:01:10.581Z,11.17
2017-09-08T20:03:38.707Z,10.13
2017-09-08T20:06:13.065Z,10.90
2017-09-08T20:08:41.183Z,12.43
2017-09-08T20:11:09.360Z,11.87
2017-09-08T20:13:38.272Z,8.30
2017-09-08T20:16:06.399Z,10.57
2017-09-08T20:18:34.549Z,8.73
2017-09-08T20:21:02.822Z,11.03
2017-09-08T20:23:30.991Z,9.13
2017-09-08T20:25:59.109Z,10.60
2017-09-08T20:28:27.242Z,8.43
2017-09-08T20:30:55.349Z,8.43
2017-09-08T20:33:23.464Z,10.37
2017-09-08T20:35:52.698Z,9.13
2017-09-08T20:38:20.852Z,12.50
2017-09-08T20:40:49.787Z,13.10
2017-09-08T20:43:17.918Z,12.27
2017-09-08T20:45:46.065Z,12.40
2017-09-08T20:48:14.403Z,10.53
2017-09-08T20:50:42.599Z,12.43
2017-09-08T20:53:10.738Z,11.30
2017-09-08T20:55:38.878Z,12.80
2017-09-08T20:58:07.099Z,13.17
2017-09-08T21:00:35.995Z,11.63
2017-09-08T21:03:04.912Z,11.30
2017-09-08T21:05:33.043Z,12.23
2017-09-08T21:08:01.216Z,11.43
2017-09-08T21:10:29.328Z,11.70
2017-09-08T21:12:57.529Z,11.80
2017-09-08T21:15:25.733Z,9.83
2017-09-08T21:17:54.762Z,10.00
2017-09-08T21:20:22.930Z,11.37
2017-09-08T21:22:51.080Z,12.53
2017-09-08T21:25:19.250Z,11.40
2017-09-08T21:27:47.363Z,10.93
2017-09-08T21:30:15.517Z,10.73
2017-09-08T21:32:44.150Z,11.50
2017-09-08T21:35:12.315Z,12.47
2017-09-08T21:37:40.466Z,10.70
2017-09-08T21:40:09.420Z,9.23
2017-09-08T21:42:38.331Z,12.20
2017-09-08T21:45:06.432Z,10.10
2017-09-08T21:47:34.572Z,10.73
2017-09-08T21:50:02.732Z,9.07
2017-09-08T21:52:30.850Z,10.27
2017-09-08T21:54:59.108Z,11.00
2017-09-08T21:57:27.347Z,9.27
2017-09-08T21:59:55.498Z,9.93
2017-09-08T22:02:23.698Z,9.80
2017-09-08T22:04:52.597Z,10.90
2017-09-08T22:07:20.766Z,11.00
2017-09-08T22:09:48.903Z,11.83
2017-09-08T22:12:17.825Z,11.33
2017-09-08T22:14:45.977Z,9.80
2017-09-08T22:17:14.101Z,11.60
2017-09-08T22:19:43.034Z,13.03
2017-09-08T22:22:11.206Z,10.80
2017-09-08T22:24:39.403Z,10.37
2017-09-08T22:27:07.534Z,9.50
2017-09-08T22:29:36.608Z,11.47
2017-09-08T22:32:04.776Z,9.77
2017-09-08T22:34:33.635Z,12.30
2017-09-08T22:37:01.767Z,13.90
2017-09-08T22:39:30.660Z,10.30
2017-09-08T22:41:59.218Z,11.10
2017-09-08T22:44:28.121Z,11.03
2017-09-08T22:46:56.302Z,10.83
2017-09-08T22:49:24.460Z,11.03
2017-09-08T22:51:53.203Z,9.40
2017-09-08T22:54:31.109Z,10.87
2017-09-08T22:56:59.225Z,10.80
2017-09-08T22:59:27.635Z,10.33
2017-09-08T23:01:56.532Z,9.60
2017-09-08T23:04:24.735Z,9.53
2017-09-08T23:06:52.942Z,15.87
2017-09-08T23:09:21.076Z,12.87
2017-09-08T23:11:49.194Z,9.13
2017-09-08T23:14:17.314Z,10.10
2017-09-08T23:16:46.228Z,10.63
2017-09-08T23:19:14.383Z,11.80
2017-09-08T23:21:43.271Z,10.40
2017-09-08T23:24:11.383Z,11.50
2017-09-08T23:26:39.588Z,10.83
2017-09-08T23:29:07.700Z,11.90
2017-09-08T23:31:35.860Z,9.23
2017-09-08T23:34:03.994Z,10.73
2017-09-08T23:36:32.887Z,10.73
2017-09-08T23:39:01.027Z,9.90
2017-09-08T23:41:29.187Z,12.20
2017-09-08T23:43:57.327Z,11.10
2017-09-08T23:46:25.623Z,9.97
2017-09-08T23:48:53.758Z,11.27
2017-09-08T23:51:22.732Z,11.57
2017-09-08T23:53:50.893Z,9.93
2017-09-08T23:56:19.071Z,8.87
2017-09-08T23:58:47.248Z,14.87
